Accueil
METAR-TAF:

METAR-TAF

Aéroports :

Paganella, Italie

latitude: 46-09N, longitude: 011-02E, altitude: 2125 m

Observation

Le bulletin a été fait il y a 50 minutes, à 09:55 UTC
Vent 2 kt de sud/sud-ouest
Température -7°C
Humidité 79%
Pression 1020 hPa
Visibilité 10 km ou plus
Quelques nuages à une hauteur de 200 ft

METAR: LIVP 060955Z 20002KT 9999 FEW002 M07/M10 Q1020 RMK SCT MON LIB VAL NIL VIS MIN 9999

Heure: 11:45 (10:45 UTC)


TAF: absent

Observations et prévisions météorologiques de plus de 4000 aéroports (messages METAR et TAF).

Les stations disponibles sont représentées par des disques jaunes et rouges sur la carte.

Passer la souris dessus pour voir le nom de la station.

Cliquer dessus pour voir les observations et prévisions météorologiques.

Pour changer de carte: cliquez sur les boutons verts avec une croix noire pour zoomer, sur le bouton vert avec un tiret pour effectuer un zoom arrière, ou sur les flèches vertes pour les cartes adjacentes.


METAR-TAF: